sensor_id;sensor_type;location;lat;lon;timestamp;P1;durP1;ratioP1;P2;durP2;ratioP2
77304;SDS011;66364;52.622;7.746;2023-09-08T11:51:44;5.23;;;4.83;;
77304;SDS011;66364;52.622;7.746;2023-09-08T11:53:46;4.90;;;4.50;;
77304;SDS011;66364;52.622;7.746;2023-09-08T11:55:48;5.10;;;4.80;;
77304;SDS011;66364;52.622;7.746;2023-09-08T11:57:51;5.47;;;5.03;;
77304;SDS011;66364;52.622;7.746;2023-09-08T11:59:53;4.83;;;4.17;;
77304;SDS011;66364;52.622;7.746;2023-09-08T12:01:55;4.77;;;4.13;;
77304;SDS011;66364;52.622;7.746;2023-09-08T12:03:56;6.27;;;5.13;;
77304;SDS011;66364;52.622;7.746;2023-09-08T12:05:57;5.27;;;4.77;;
77304;SDS011;66364;52.622;7.746;2023-09-08T12:07:58;4.97;;;4.57;;
77304;SDS011;66364;52.622;7.746;2023-09-08T12:09:58;5.53;;;5.13;;
77304;SDS011;66364;52.622;7.746;2023-09-08T12:12:03;4.73;;;4.33;;
77304;SDS011;66364;52.622;7.746;2023-09-08T12:14:09;5.40;;;4.93;;
77304;SDS011;66364;52.622;7.746;2023-09-08T12:16:18;5.00;;;4.50;;
77304;SDS011;66364;52.622;7.746;2023-09-08T12:18:36;5.40;;;4.50;;
77304;SDS011;66364;52.622;7.746;2023-09-08T12:20:25;4.43;;;4.10;;
77304;SDS011;66364;52.622;7.746;2023-09-08T12:22:26;7.73;;;5.27;;
77304;SDS011;66364;52.622;7.746;2023-09-08T12:26:49;7.00;;;4.87;;
77304;SDS011;66364;52.622;7.746;2023-09-08T12:28:50;4.60;;;4.20;;
77304;SDS011;66364;52.622;7.746;2023-09-08T12:30:51;5.50;;;4.97;;
77304;SDS011;66364;52.622;7.746;2023-09-08T12:32:53;5.23;;;4.47;;
77304;SDS011;66364;52.622;7.746;2023-09-08T12:34:54;5.07;;;4.67;;
77304;SDS011;66364;52.622;7.746;2023-09-08T12:36:55;4.30;;;4.00;;
77304;SDS011;66364;52.622;7.746;2023-09-08T12:38:56;4.80;;;4.40;;
77304;SDS011;66364;52.622;7.746;2023-09-08T12:40:57;5.20;;;3.83;;
77304;SDS011;66364;52.622;7.746;2023-09-08T12:42:58;4.50;;;4.17;;
77304;SDS011;66364;52.622;7.746;2023-09-08T12:44:59;5.23;;;4.83;;
77304;SDS011;66364;52.622;7.746;2023-09-08T12:47:00;4.70;;;4.30;;
77304;SDS011;66364;52.622;7.746;2023-09-08T12:49:00;5.73;;;4.00;;
77304;SDS011;66364;52.622;7.746;2023-09-08T12:51:01;3.90;;;3.63;;
77304;SDS011;66364;52.622;7.746;2023-09-08T12:53:02;4.80;;;4.40;;
77304;SDS011;66364;52.622;7.746;2023-09-08T12:55:04;4.73;;;4.33;;
77304;SDS011;66364;52.622;7.746;2023-09-08T12:57:05;4.73;;;4.27;;
77304;SDS011;66364;52.622;7.746;2023-09-08T12:59:06;4.73;;;4.33;;
77304;SDS011;66364;52.622;7.746;2023-09-08T13:01:08;4.73;;;3.90;;
77304;SDS011;66364;52.622;7.746;2023-09-08T13:03:09;4.47;;;4.07;;
77304;SDS011;66364;52.622;7.746;2023-09-08T13:05:10;4.53;;;4.00;;
77304;SDS011;66364;52.622;7.746;2023-09-08T13:07:11;4.20;;;3.90;;
77304;SDS011;66364;52.622;7.746;2023-09-08T13:09:12;4.30;;;3.90;;
77304;SDS011;66364;52.622;7.746;2023-09-08T13:11:13;4.43;;;4.03;;
77304;SDS011;66364;52.622;7.746;2023-09-08T13:13:14;5.67;;;4.27;;
77304;SDS011;66364;52.622;7.746;2023-09-08T13:15:15;5.07;;;4.43;;
77304;SDS011;66364;52.622;7.746;2023-09-08T13:19:21;6.23;;;4.20;;
77304;SDS011;66364;52.622;7.746;2023-09-08T13:21:22;5.13;;;4.60;;
77304;SDS011;66364;52.622;7.746;2023-09-08T13:23:22;3.40;;;3.20;;
77304;SDS011;66364;52.622;7.746;2023-09-08T13:25:24;5.50;;;4.93;;
77304;SDS011;66364;52.622;7.746;2023-09-08T13:27:25;4.53;;;4.23;;
77304;SDS011;66364;52.622;7.746;2023-09-08T13:29:26;4.63;;;4.23;;
77304;SDS011;66364;52.622;7.746;2023-09-08T13:31:27;4.40;;;4.10;;
77304;SDS011;66364;52.622;7.746;2023-09-08T13:33:28;4.37;;;4.00;;
77304;SDS011;66364;52.622;7.746;2023-09-08T13:35:29;4.27;;;3.97;;
77304;SDS011;66364;52.622;7.746;2023-09-08T13:37:30;5.30;;;4.80;;
77304;SDS011;66364;52.622;7.746;2023-09-08T13:39:30;4.87;;;4.47;;
77304;SDS011;66364;52.622;7.746;2023-09-08T13:41:45;8.23;;;4.10;;
77304;SDS011;66364;52.622;7.746;2023-09-08T13:43:50;4.40;;;3.73;;
77304;SDS011;66364;52.622;7.746;2023-09-08T13:45:51;3.70;;;3.40;;
77304;SDS011;66364;52.622;7.746;2023-09-08T13:47:52;4.37;;;4.00;;
77304;SDS011;66364;52.622;7.746;2023-09-08T13:49:53;4.43;;;3.93;;
77304;SDS011;66364;52.622;7.746;2023-09-08T13:51:54;8.53;;;4.30;;
77304;SDS011;66364;52.622;7.746;2023-09-08T13:56:12;3.70;;;3.40;;
77304;SDS011;66364;52.622;7.746;2023-09-08T13:58:13;4.80;;;4.20;;
77304;SDS011;66364;52.622;7.746;2023-09-08T14:00:14;4.40;;;3.93;;
77304;SDS011;66364;52.622;7.746;2023-09-08T14:02:15;4.47;;;3.87;;
77304;SDS011;66364;52.622;7.746;2023-09-08T14:04:16;4.13;;;3.83;;
77304;SDS011;66364;52.622;7.746;2023-09-08T14:06:17;5.50;;;4.40;;
77304;SDS011;66364;52.622;7.746;2023-09-08T14:08:19;4.30;;;3.90;;
77304;SDS011;66364;52.622;7.746;2023-09-08T14:10:19;5.90;;;4.00;;
77304;SDS011;66364;52.622;7.746;2023-09-08T14:12:23;4.70;;;4.30;;
77304;SDS011;66364;52.622;7.746;2023-09-08T14:14:25;4.70;;;4.30;;
77304;SDS011;66364;52.622;7.746;2023-09-08T14:16:25;6.23;;;4.13;;
77304;SDS011;66364;52.622;7.746;2023-09-08T14:18:26;5.20;;;4.40;;
77304;SDS011;66364;52.622;7.746;2023-09-08T14:20:27;4.80;;;4.50;;
77304;SDS011;66364;52.622;7.746;2023-09-08T14:22:31;4.50;;;4.10;;
77304;SDS011;66364;52.622;7.746;2023-09-08T14:24:32;8.33;;;4.43;;
77304;SDS011;66364;52.622;7.746;2023-09-08T14:26:33;4.67;;;4.27;;
77304;SDS011;66364;52.622;7.746;2023-09-08T14:28:34;5.33;;;4.83;;
77304;SDS011;66364;52.622;7.746;2023-09-08T14:30:36;5.07;;;4.60;;
77304;SDS011;66364;52.622;7.746;2023-09-08T14:32:36;4.43;;;4.03;;
77304;SDS011;66364;52.622;7.746;2023-09-08T14:34:38;4.80;;;4.40;;
77304;SDS011;66364;52.622;7.746;2023-09-08T14:36:39;5.27;;;4.70;;
77304;SDS011;66364;52.622;7.746;2023-09-08T14:38:40;4.50;;;4.20;;
77304;SDS011;66364;52.622;7.746;2023-09-08T14:40:41;4.00;;;3.70;;
77304;SDS011;66364;52.622;7.746;2023-09-08T14:42:42;4.37;;;3.97;;
77304;SDS011;66364;52.622;7.746;2023-09-08T14:44:43;4.87;;;4.47;;
77304;SDS011;66364;52.622;7.746;2023-09-08T14:46:44;4.47;;;4.07;;
77304;SDS011;66364;52.622;7.746;2023-09-08T14:48:45;5.07;;;4.63;;
77304;SDS011;66364;52.622;7.746;2023-09-08T14:50:46;4.90;;;4.40;;
77304;SDS011;66364;52.622;7.746;2023-09-08T14:52:47;4.93;;;4.53;;
77304;SDS011;66364;52.622;7.746;2023-09-08T14:54:48;4.43;;;4.03;;
77304;SDS011;66364;52.622;7.746;2023-09-08T14:56:50;4.60;;;4.20;;
77304;SDS011;66364;52.622;7.746;2023-09-08T14:58:51;5.17;;;4.70;;
77304;SDS011;66364;52.622;7.746;2023-09-08T15:00:58;5.50;;;4.60;;
77304;SDS011;66364;52.622;7.746;2023-09-08T15:02:59;4.73;;;4.40;;
77304;SDS011;66364;52.622;7.746;2023-09-08T15:05:00;4.93;;;4.53;;
77304;SDS011;66364;52.622;7.746;2023-09-08T15:07:01;4.20;;;3.90;;
77304;SDS011;66364;52.622;7.746;2023-09-08T15:09:02;5.20;;;4.80;;
77304;SDS011;66364;52.622;7.746;2023-09-08T15:11:03;4.57;;;4.20;;
77304;SDS011;66364;52.622;7.746;2023-09-08T15:13:04;4.90;;;4.10;;
77304;SDS011;66364;52.622;7.746;2023-09-08T15:15:05;5.30;;;4.20;;
77304;SDS011;66364;52.622;7.746;2023-09-08T15:17:10;4.70;;;4.30;;
77304;SDS011;66364;52.622;7.746;2023-09-08T15:19:11;6.13;;;4.80;;
77304;SDS011;66364;52.622;7.746;2023-09-08T15:21:13;5.30;;;4.43;;
77304;SDS011;66364;52.622;7.746;2023-09-08T15:23:14;6.40;;;4.80;;
77304;SDS011;66364;52.622;7.746;2023-09-08T15:25:17;5.20;;;4.80;;
77304;SDS011;66364;52.622;7.746;2023-09-08T15:27:18;5.50;;;5.00;;
77304;SDS011;66364;52.622;7.746;2023-09-08T15:29:21;4.90;;;4.50;;
77304;SDS011;66364;52.622;7.746;2023-09-08T15:31:22;5.07;;;4.57;;
77304;SDS011;66364;52.622;7.746;2023-09-08T15:33:23;5.07;;;4.63;;
77304;SDS011;66364;52.622;7.746;2023-09-08T15:35:24;4.80;;;4.40;;
77304;SDS011;66364;52.622;7.746;2023-09-08T15:37:25;4.70;;;4.30;;
77304;SDS011;66364;52.622;7.746;2023-09-08T15:39:26;6.10;;;4.80;;
77304;SDS011;66364;52.622;7.746;2023-09-08T15:41:26;5.33;;;4.90;;
77304;SDS011;66364;52.622;7.746;2023-09-08T15:43:27;4.83;;;4.43;;
77304;SDS011;66364;52.622;7.746;2023-09-08T15:45:28;4.80;;;4.40;;
77304;SDS011;66364;52.622;7.746;2023-09-08T15:47:30;6.23;;;4.40;;
77304;SDS011;66364;52.622;7.746;2023-09-08T15:49:31;5.10;;;4.70;;
77304;SDS011;66364;52.622;7.746;2023-09-08T15:51:32;4.93;;;4.33;;
77304;SDS011;66364;52.622;7.746;2023-09-08T15:53:33;10.37;;;5.07;;
77304;SDS011;66364;52.622;7.746;2023-09-08T15:55:34;6.23;;;5.67;;
77304;SDS011;66364;52.622;7.746;2023-09-08T15:57:35;8.77;;;4.60;;
77304;SDS011;66364;52.622;7.746;2023-09-08T15:59:36;6.03;;;4.97;;
77304;SDS011;66364;52.622;7.746;2023-09-08T16:01:37;6.87;;;4.90;;
77304;SDS011;66364;52.622;7.746;2023-09-08T16:03:38;6.70;;;4.97;;
77304;SDS011;66364;52.622;7.746;2023-09-08T16:05:39;6.17;;;5.20;;
77304;SDS011;66364;52.622;7.746;2023-09-08T16:07:40;8.37;;;5.30;;
77304;SDS011;66364;52.622;7.746;2023-09-08T16:09:55;7.70;;;4.83;;
77304;SDS011;66364;52.622;7.746;2023-09-08T16:11:55;6.43;;;4.73;;
77304;SDS011;66364;52.622;7.746;2023-09-08T16:13:58;5.77;;;5.27;;
77304;SDS011;66364;52.622;7.746;2023-09-08T16:15:59;5.97;;;5.17;;
77304;SDS011;66364;52.622;7.746;2023-09-08T16:18:00;5.90;;;5.00;;
77304;SDS011;66364;52.622;7.746;2023-09-08T16:20:01;6.70;;;6.00;;
77304;SDS011;66364;52.622;7.746;2023-09-08T16:22:02;5.33;;;4.83;;
77304;SDS011;66364;52.622;7.746;2023-09-08T16:24:04;6.00;;;5.50;;
77304;SDS011;66364;52.622;7.746;2023-09-08T16:26:05;7.80;;;5.87;;
77304;SDS011;66364;52.622;7.746;2023-09-08T16:28:06;6.07;;;5.47;;
77304;SDS011;66364;52.622;7.746;2023-09-08T16:30:07;5.10;;;4.70;;
77304;SDS011;66364;52.622;7.746;2023-09-08T16:32:10;5.10;;;4.70;;
77304;SDS011;66364;52.622;7.746;2023-09-08T16:34:11;5.70;;;5.00;;
77304;SDS011;66364;52.622;7.746;2023-09-08T16:36:12;6.40;;;5.47;;
77304;SDS011;66364;52.622;7.746;2023-09-08T16:38:13;6.43;;;4.73;;
77304;SDS011;66364;52.622;7.746;2023-09-08T16:40:14;5.80;;;4.73;;
77304;SDS011;66364;52.622;7.746;2023-09-08T16:42:15;5.07;;;4.37;;
77304;SDS011;66364;52.622;7.746;2023-09-08T16:44:16;4.93;;;4.53;;
77304;SDS011;66364;52.622;7.746;2023-09-08T16:46:18;6.47;;;5.00;;
77304;SDS011;66364;52.622;7.746;2023-09-08T16:48:19;6.50;;;4.83;;
77304;SDS011;66364;52.622;7.746;2023-09-08T16:50:20;7.00;;;5.10;;
77304;SDS011;66364;52.622;7.746;2023-09-08T16:52:24;5.50;;;4.80;;
77304;SDS011;66364;52.622;7.746;2023-09-08T16:54:24;8.40;;;4.83;;
77304;SDS011;66364;52.622;7.746;2023-09-08T16:56:26;6.40;;;4.90;;
77304;SDS011;66364;52.622;7.746;2023-09-08T16:58:27;7.10;;;4.90;;
77304;SDS011;66364;52.622;7.746;2023-09-08T17:00:28;5.53;;;4.87;;
77304;SDS011;66364;52.622;7.746;2023-09-08T17:02:29;5.87;;;5.20;;
77304;SDS011;66364;52.622;7.746;2023-09-08T17:04:31;6.60;;;5.10;;
77304;SDS011;66364;52.622;7.746;2023-09-08T17:06:32;5.47;;;5.00;;
77304;SDS011;66364;52.622;7.746;2023-09-08T17:08:33;7.17;;;4.60;;
77304;SDS011;66364;52.622;7.746;2023-09-08T17:10:34;5.87;;;4.53;;
77304;SDS011;66364;52.622;7.746;2023-09-08T17:12:35;5.83;;;5.43;;
77304;SDS011;66364;52.622;7.746;2023-09-08T17:14:36;9.80;;;5.10;;
77304;SDS011;66364;52.622;7.746;2023-09-08T17:16:37;5.40;;;4.90;;
77304;SDS011;66364;52.622;7.746;2023-09-08T17:18:39;6.90;;;4.63;;
77304;SDS011;66364;52.622;7.746;2023-09-08T17:20:40;7.00;;;6.20;;
77304;SDS011;66364;52.622;7.746;2023-09-08T17:22:41;6.10;;;4.57;;
77304;SDS011;66364;52.622;7.746;2023-09-08T17:24:42;6.87;;;5.10;;
77304;SDS011;66364;52.622;7.746;2023-09-08T17:26:43;8.90;;;6.47;;
77304;SDS011;66364;52.622;7.746;2023-09-08T17:28:44;6.07;;;5.40;;
77304;SDS011;66364;52.622;7.746;2023-09-08T17:30:46;5.23;;;4.83;;
77304;SDS011;66364;52.622;7.746;2023-09-08T17:32:47;5.30;;;4.80;;
77304;SDS011;66364;52.622;7.746;2023-09-08T17:34:48;5.33;;;4.90;;
77304;SDS011;66364;52.622;7.746;2023-09-08T17:36:52;5.83;;;5.33;;
77304;SDS011;66364;52.622;7.746;2023-09-08T17:38:54;5.67;;;5.20;;
77304;SDS011;66364;52.622;7.746;2023-09-08T17:40:56;6.40;;;5.77;;
77304;SDS011;66364;52.622;7.746;2023-09-08T17:42:57;5.47;;;5.07;;
77304;SDS011;66364;52.622;7.746;2023-09-08T17:44:59;5.67;;;5.27;;
77304;SDS011;66364;52.622;7.746;2023-09-08T17:47:01;6.00;;;5.40;;
77304;SDS011;66364;52.622;7.746;2023-09-08T17:49:03;7.07;;;6.43;;
77304;SDS011;66364;52.622;7.746;2023-09-08T17:51:04;9.60;;;7.40;;
77304;SDS011;66364;52.622;7.746;2023-09-08T17:53:05;8.20;;;7.47;;
77304;SDS011;66364;52.622;7.746;2023-09-08T17:55:08;9.83;;;8.93;;
77304;SDS011;66364;52.622;7.746;2023-09-08T17:57:09;9.10;;;7.83;;
77304;SDS011;66364;52.622;7.746;2023-09-08T17:59:10;9.20;;;7.60;;
77304;SDS011;66364;52.622;7.746;2023-09-08T18:01:11;8.90;;;8.10;;
77304;SDS011;66364;52.622;7.746;2023-09-08T18:03:18;9.60;;;8.80;;
77304;SDS011;66364;52.622;7.746;2023-09-08T18:05:21;9.90;;;8.40;;
77304;SDS011;66364;52.622;7.746;2023-09-08T18:07:22;10.10;;;9.20;;
77304;SDS011;66364;52.622;7.746;2023-09-08T18:09:23;8.53;;;7.73;;
77304;SDS011;66364;52.622;7.746;2023-09-08T18:11:35;10.80;;;9.73;;
77304;SDS011;66364;52.622;7.746;2023-09-08T18:13:35;8.43;;;7.63;;
77304;SDS011;66364;52.622;7.746;2023-09-08T18:15:38;8.40;;;7.60;;
77304;SDS011;66364;52.622;7.746;2023-09-08T18:17:40;8.17;;;7.47;;
77304;SDS011;66364;52.622;7.746;2023-09-08T18:19:41;9.13;;;8.23;;
77304;SDS011;66364;52.622;7.746;2023-09-08T18:21:47;7.63;;;6.93;;
77304;SDS011;66364;52.622;7.746;2023-09-08T18:23:48;7.97;;;7.27;;
77304;SDS011;66364;52.622;7.746;2023-09-08T18:25:49;8.20;;;7.07;;
77304;SDS011;66364;52.622;7.746;2023-09-08T18:27:50;7.60;;;6.80;;
77304;SDS011;66364;52.622;7.746;2023-09-08T18:29:51;7.87;;;7.17;;
77304;SDS011;66364;52.622;7.746;2023-09-08T18:31:52;8.07;;;7.23;;
77304;SDS011;66364;52.622;7.746;2023-09-08T18:33:53;7.20;;;6.60;;
77304;SDS011;66364;52.622;7.746;2023-09-08T18:35:55;9.83;;;7.00;;
77304;SDS011;66364;52.622;7.746;2023-09-08T18:37:56;7.83;;;7.13;;
77304;SDS011;66364;52.622;7.746;2023-09-08T18:39:57;11.10;;;6.97;;
77304;SDS011;66364;52.622;7.746;2023-09-08T18:41:58;8.50;;;7.50;;
77304;SDS011;66364;52.622;7.746;2023-09-08T18:43:59;7.80;;;7.03;;
77304;SDS011;66364;52.622;7.746;2023-09-08T18:46:00;7.47;;;6.90;;
77304;SDS011;66364;52.622;7.746;2023-09-08T18:48:02;8.60;;;7.60;;
77304;SDS011;66364;52.622;7.746;2023-09-08T18:50:03;7.83;;;6.97;;
77304;SDS011;66364;52.622;7.746;2023-09-08T18:52:05;7.53;;;6.77;;
77304;SDS011;66364;52.622;7.746;2023-09-08T18:54:06;7.43;;;6.60;;
77304;SDS011;66364;52.622;7.746;2023-09-08T18:56:08;7.85;;;7.08;;
77304;SDS011;66364;52.622;7.746;2023-09-08T18:58:09;7.53;;;6.87;;
77304;SDS011;66364;52.622;7.746;2023-09-08T19:00:11;7.60;;;7.00;;
77304;SDS011;66364;52.622;7.746;2023-09-08T19:02:15;8.70;;;7.80;;
77304;SDS011;66364;52.622;7.746;2023-09-08T19:04:16;11.77;;;6.83;;
77304;SDS011;66364;52.622;7.746;2023-09-08T19:06:17;7.90;;;7.20;;
77304;SDS011;66364;52.622;7.746;2023-09-08T19:08:18;8.07;;;7.27;;
77304;SDS011;66364;52.622;7.746;2023-09-08T19:10:19;7.87;;;7.17;;
77304;SDS011;66364;52.622;7.746;2023-09-08T19:12:20;8.58;;;7.30;;
77304;SDS011;66364;52.622;7.746;2023-09-08T19:14:21;9.30;;;7.85;;
77304;SDS011;66364;52.622;7.746;2023-09-08T19:16:22;8.67;;;7.77;;
77304;SDS011;66364;52.622;7.746;2023-09-08T19:18:23;8.23;;;7.40;;
77304;SDS011;66364;52.622;7.746;2023-09-08T19:20:24;8.70;;;7.73;;
77304;SDS011;66364;52.622;7.746;2023-09-08T19:22:25;7.20;;;6.60;;
77304;SDS011;66364;52.622;7.746;2023-09-08T19:24:26;8.70;;;7.93;;
77304;SDS011;66364;52.622;7.746;2023-09-08T19:26:26;7.80;;;7.00;;
77304;SDS011;66364;52.622;7.746;2023-09-08T19:28:34;7.87;;;7.28;;
77304;SDS011;66364;52.622;7.746;2023-09-08T19:30:34;8.90;;;7.10;;
77304;SDS011;66364;52.622;7.746;2023-09-08T19:32:36;8.15;;;7.42;;
77304;SDS011;66364;52.622;7.746;2023-09-08T19:34:37;7.90;;;7.30;;
77304;SDS011;66364;52.622;7.746;2023-09-08T19:36:38;7.50;;;6.90;;
77304;SDS011;66364;52.622;7.746;2023-09-08T19:38:38;6.80;;;6.30;;
77304;SDS011;66364;52.622;7.746;2023-09-08T19:40:39;7.40;;;6.70;;
77304;SDS011;66364;52.622;7.746;2023-09-08T19:42:40;16.53;;;15.13;;
77304;SDS011;66364;52.622;7.746;2023-09-08T19:44:41;10.30;;;8.17;;
77304;SDS011;66364;52.622;7.746;2023-09-08T19:46:42;7.70;;;7.10;;
77304;SDS011;66364;52.622;7.746;2023-09-08T19:48:43;11.88;;;8.43;;
77304;SDS011;66364;52.622;7.746;2023-09-08T19:50:44;7.53;;;6.83;;
77304;SDS011;66364;52.622;7.746;2023-09-08T19:52:45;8.27;;;7.47;;
77304;SDS011;66364;52.622;7.746;2023-09-08T19:54:46;7.80;;;7.00;;
77304;SDS011;66364;52.622;7.746;2023-09-08T19:56:48;7.73;;;7.03;;
77304;SDS011;66364;52.622;7.746;2023-09-08T19:58:49;8.75;;;7.85;;
77304;SDS011;66364;52.622;7.746;2023-09-08T20:00:50;7.60;;;6.90;;
77304;SDS011;66364;52.622;7.746;2023-09-08T20:02:51;8.00;;;7.20;;
77304;SDS011;66364;52.622;7.746;2023-09-08T20:04:52;8.23;;;7.37;;
77304;SDS011;66364;52.622;7.746;2023-09-08T20:06:54;7.22;;;6.53;;
77304;SDS011;66364;52.622;7.746;2023-09-08T20:08:55;8.10;;;7.23;;
77304;SDS011;66364;52.622;7.746;2023-09-08T20:10:56;7.93;;;6.73;;
77304;SDS011;66364;52.622;7.746;2023-09-08T20:12:57;7.80;;;7.10;;
77304;SDS011;66364;52.622;7.746;2023-09-08T20:14:58;9.50;;;8.55;;
77304;SDS011;66364;52.622;7.746;2023-09-08T20:16:59;7.70;;;7.00;;
77304;SDS011;66364;52.622;7.746;2023-09-08T20:19:00;7.50;;;7.00;;
77304;SDS011;66364;52.622;7.746;2023-09-08T20:21:01;7.90;;;7.20;;
77304;SDS011;66364;52.622;7.746;2023-09-08T20:23:04;8.73;;;7.53;;
77304;SDS011;66364;52.622;7.746;2023-09-08T20:25:06;7.70;;;7.10;;
77304;SDS011;66364;52.622;7.746;2023-09-08T20:27:08;9.15;;;7.47;;
77304;SDS011;66364;52.622;7.746;2023-09-08T20:29:09;7.90;;;7.30;;
77304;SDS011;66364;52.622;7.746;2023-09-08T20:31:09;7.53;;;6.90;;
77304;SDS011;66364;52.622;7.746;2023-09-08T20:33:11;7.67;;;6.97;;
77304;SDS011;66364;52.622;7.746;2023-09-08T20:35:12;8.63;;;7.67;;
77304;SDS011;66364;52.622;7.746;2023-09-08T20:37:13;7.53;;;6.93;;
77304;SDS011;66364;52.622;7.746;2023-09-08T20:39:15;7.92;;;7.30;;
77304;SDS011;66364;52.622;7.746;2023-09-08T20:41:15;7.70;;;7.10;;
77304;SDS011;66364;52.622;7.746;2023-09-08T20:43:17;9.00;;;8.20;;
77304;SDS011;66364;52.622;7.746;2023-09-08T20:45:19;7.75;;;7.15;;
77304;SDS011;66364;52.622;7.746;2023-09-08T20:47:20;7.78;;;7.17;;
77304;SDS011;66364;52.622;7.746;2023-09-08T20:49:21;7.57;;;6.90;;
77304;SDS011;66364;52.622;7.746;2023-09-08T20:51:23;7.90;;;7.15;;
77304;SDS011;66364;52.622;7.746;2023-09-08T20:53:24;7.07;;;6.57;;
77304;SDS011;66364;52.622;7.746;2023-09-08T20:55:25;8.87;;;7.97;;
77304;SDS011;66364;52.622;7.746;2023-09-08T20:57:26;7.60;;;6.70;;
77304;SDS011;66364;52.622;7.746;2023-09-08T20:59:27;8.07;;;7.37;;
77304;SDS011;66364;52.622;7.746;2023-09-08T21:01:28;8.20;;;7.50;;
77304;SDS011;66364;52.622;7.746;2023-09-08T21:03:30;7.75;;;7.05;;
77304;SDS011;66364;52.622;7.746;2023-09-08T21:05:31;7.35;;;6.65;;
77304;SDS011;66364;52.622;7.746;2023-09-08T21:07:32;7.83;;;7.03;;
77304;SDS011;66364;52.622;7.746;2023-09-08T21:09:34;7.85;;;7.25;;
77304;SDS011;66364;52.622;7.746;2023-09-08T21:11:34;7.77;;;7.10;;
77304;SDS011;66364;52.622;7.746;2023-09-08T21:13:35;13.10;;;7.70;;
77304;SDS011;66364;52.622;7.746;2023-09-08T21:15:37;8.40;;;7.53;;
77304;SDS011;66364;52.622;7.746;2023-09-08T21:17:38;8.98;;;8.20;;
77304;SDS011;66364;52.622;7.746;2023-09-08T21:19:39;7.87;;;7.07;;
77304;SDS011;66364;52.622;7.746;2023-09-08T21:21:40;7.77;;;7.17;;
77304;SDS011;66364;52.622;7.746;2023-09-08T21:23:41;8.70;;;7.90;;
77304;SDS011;66364;52.622;7.746;2023-09-08T21:25:42;9.43;;;8.50;;
77304;SDS011;66364;52.622;7.746;2023-09-08T21:27:43;9.23;;;8.43;;
77304;SDS011;66364;52.622;7.746;2023-09-08T21:29:44;9.03;;;8.13;;
77304;SDS011;66364;52.622;7.746;2023-09-08T21:31:45;8.53;;;7.85;;
77304;SDS011;66364;52.622;7.746;2023-09-08T21:33:46;8.87;;;8.17;;
77304;SDS011;66364;52.622;7.746;2023-09-08T21:35:47;9.20;;;8.50;;
77304;SDS011;66364;52.622;7.746;2023-09-08T21:37:48;9.40;;;8.60;;
77304;SDS011;66364;52.622;7.746;2023-09-08T21:39:49;8.60;;;7.80;;
77304;SDS011;66364;52.622;7.746;2023-09-08T21:41:50;10.57;;;8.03;;
77304;SDS011;66364;52.622;7.746;2023-09-08T21:43:51;9.03;;;8.13;;
77304;SDS011;66364;52.622;7.746;2023-09-08T21:46:00;8.30;;;7.60;;
77304;SDS011;66364;52.622;7.746;2023-09-08T21:47:56;9.05;;;8.35;;
77304;SDS011;66364;52.622;7.746;2023-09-08T21:49:57;9.43;;;8.47;;
77304;SDS011;66364;52.622;7.746;2023-09-08T21:51:58;9.60;;;7.53;;
77304;SDS011;66364;52.622;7.746;2023-09-08T21:54:00;8.70;;;7.90;;
77304;SDS011;66364;52.622;7.746;2023-09-08T21:56:00;7.87;;;7.17;;
77304;SDS011;66364;52.622;7.746;2023-09-08T21:58:04;8.45;;;7.65;;
77304;SDS011;66364;52.622;7.746;2023-09-08T22:00:05;11.15;;;8.10;;
77304;SDS011;66364;52.622;7.746;2023-09-08T22:02:08;8.10;;;7.42;;
77304;SDS011;66364;52.622;7.746;2023-09-08T22:04:09;9.65;;;8.45;;
77304;SDS011;66364;52.622;7.746;2023-09-08T22:06:10;9.77;;;8.37;;
77304;SDS011;66364;52.622;7.746;2023-09-08T22:08:11;11.37;;;8.90;;
77304;SDS011;66364;52.622;7.746;2023-09-08T22:10:12;9.43;;;8.63;;
77304;SDS011;66364;52.622;7.746;2023-09-08T22:12:14;9.10;;;8.20;;
77304;SDS011;66364;52.622;7.746;2023-09-08T22:14:17;10.95;;;9.85;;
77304;SDS011;66364;52.622;7.746;2023-09-08T22:16:18;9.70;;;8.45;;
77304;SDS011;66364;52.622;7.746;2023-09-08T22:18:20;8.55;;;7.85;;
77304;SDS011;66364;52.622;7.746;2023-09-08T22:20:20;8.20;;;7.50;;
77304;SDS011;66364;52.622;7.746;2023-09-08T22:22:21;9.13;;;8.33;;
77304;SDS011;66364;52.622;7.746;2023-09-08T22:24:22;8.50;;;7.70;;
77304;SDS011;66364;52.622;7.746;2023-09-08T22:26:24;7.92;;;7.33;;
77304;SDS011;66364;52.622;7.746;2023-09-08T22:28:25;7.53;;;6.90;;
77304;SDS011;66364;52.622;7.746;2023-09-08T22:30:26;8.83;;;7.77;;
77304;SDS011;66364;52.622;7.746;2023-09-08T22:32:28;8.93;;;8.10;;
77304;SDS011;66364;52.622;7.746;2023-09-08T22:34:29;9.07;;;8.27;;
77304;SDS011;66364;52.622;7.746;2023-09-08T22:36:29;7.50;;;6.90;;
77304;SDS011;66364;52.622;7.746;2023-09-08T22:38:32;9.78;;;8.98;;
77304;SDS011;66364;52.622;7.746;2023-09-08T22:40:33;8.78;;;7.90;;
77304;SDS011;66364;52.622;7.746;2023-09-08T22:42:35;8.15;;;6.90;;
77304;SDS011;66364;52.622;7.746;2023-09-08T22:44:36;8.40;;;7.60;;
77304;SDS011;66364;52.622;7.746;2023-09-08T22:46:36;7.87;;;7.17;;
77304;SDS011;66364;52.622;7.746;2023-09-08T22:48:37;8.20;;;7.50;;
77304;SDS011;66364;52.622;7.746;2023-09-08T22:50:38;8.60;;;7.77;;
77304;SDS011;66364;52.622;7.746;2023-09-08T22:52:39;9.30;;;8.33;;
77304;SDS011;66364;52.622;7.746;2023-09-08T22:54:40;8.80;;;7.90;;
77304;SDS011;66364;52.622;7.746;2023-09-08T22:56:41;9.20;;;8.00;;
77304;SDS011;66364;52.622;7.746;2023-09-08T22:58:42;8.10;;;7.30;;
77304;SDS011;66364;52.622;7.746;2023-09-08T23:00:43;8.25;;;7.37;;
77304;SDS011;66364;52.622;7.746;2023-09-08T23:02:56;9.50;;;8.50;;
77304;SDS011;66364;52.622;7.746;2023-09-08T23:04:57;9.00;;;8.20;;
77304;SDS011;66364;52.622;7.746;2023-09-08T23:06:58;8.20;;;7.50;;
77304;SDS011;66364;52.622;7.746;2023-09-08T23:08:59;7.77;;;7.17;;
77304;SDS011;66364;52.622;7.746;2023-09-08T23:11:00;7.43;;;6.83;;
77304;SDS011;66364;52.622;7.746;2023-09-08T23:13:01;7.67;;;6.97;;
77304;SDS011;66364;52.622;7.746;2023-09-08T23:15:02;9.37;;;8.10;;
77304;SDS011;66364;52.622;7.746;2023-09-08T23:17:04;8.45;;;7.30;;
77304;SDS011;66364;52.622;7.746;2023-09-08T23:19:05;9.30;;;7.60;;
77304;SDS011;66364;52.622;7.746;2023-09-08T23:21:06;7.80;;;7.13;;
77304;SDS011;66364;52.622;7.746;2023-09-08T23:23:08;8.53;;;7.85;;
77304;SDS011;66364;52.622;7.746;2023-09-08T23:25:08;8.70;;;8.00;;
77304;SDS011;66364;52.622;7.746;2023-09-08T23:27:10;9.20;;;8.50;;
77304;SDS011;66364;52.622;7.746;2023-09-08T23:29:11;8.23;;;7.33;;
77304;SDS011;66364;52.622;7.746;2023-09-08T23:31:12;8.23;;;7.53;;
77304;SDS011;66364;52.622;7.746;2023-09-08T23:33:13;7.62;;;7.03;;
77304;SDS011;66364;52.622;7.746;2023-09-08T23:35:15;8.30;;;7.60;;
77304;SDS011;66364;52.622;7.746;2023-09-08T23:37:16;8.07;;;7.43;;
77304;SDS011;66364;52.622;7.746;2023-09-08T23:39:17;8.20;;;7.40;;
77304;SDS011;66364;52.622;7.746;2023-09-08T23:41:18;8.37;;;7.67;;
77304;SDS011;66364;52.622;7.746;2023-09-08T23:43:19;8.70;;;7.93;;
77304;SDS011;66364;52.622;7.746;2023-09-08T23:45:19;7.60;;;7.00;;
77304;SDS011;66364;52.622;7.746;2023-09-08T23:47:20;8.70;;;8.00;;
77304;SDS011;66364;52.622;7.746;2023-09-08T23:49:22;9.08;;;8.28;;
77304;SDS011;66364;52.622;7.746;2023-09-08T23:51:23;8.55;;;7.80;;
77304;SDS011;66364;52.622;7.746;2023-09-08T23:53:25;7.65;;;7.05;;
77304;SDS011;66364;52.622;7.746;2023-09-08T23:55:27;7.75;;;7.12;;
77304;SDS011;66364;52.622;7.746;2023-09-08T23:57:28;8.50;;;7.47;;
77304;SDS011;66364;52.622;7.746;2023-09-08T23:59:29;7.43;;;6.73;;
